Terminal Aerodrome Forecast
Issued by NWS

Home | Current Version | Previous Version | Graphics & Text | Print | Product List | Glossary On
Versions: 1 2 3 4 5 6 7 8 9 10 11 12 13 14 15 16 17 18 19 20 21
000
FTUS43 KABR 170900 AAA
TAFPIR
TAF AMD
KPIR 170900Z 1709/1806 VRB03KT P6SM BKN010
     FM171700 19008KT P6SM SKC
     FM172300 19008KT P6SM VCTS SCT040CB BKN100=

USA.gov is the U.S. government's official web portal to all federal, state and local government web resources and services.